Time;durP1;ratioP1;P1;durP2;ratioP2;P2;SDS_P1;SDS_P2;PMS_P1;PMS_P2;Temp;Humidity;BMP_temperature;BMP_pressure;BME280_temperature;BME280_humidity;BME280_pressure;Samples;Min_cycle;Max_cycle;Signal;HPM_P1;HPM_P2
2022/08/23 00:00:50;;;;;;;3.97;3.77;;;20.80;70.50;;;;;;10505098;28;20620;-79
2022/08/23 00:05:53;;;;;;;4.47;4.00;;;20.70;70.10;;;;;;10522136;28;20217;-79
2022/08/23 00:10:56;;;;;;;4.30;4.03;;;20.70;70.40;;;;;;10505033;28;20223;-79
2022/08/23 00:15:59;;;;;;;4.90;4.50;;;20.60;70.60;;;;;;10504370;28;20185;-79
2022/08/23 00:21:01;;;;;;;4.27;3.97;;;20.50;70.70;;;;;;10487779;28;20676;-79
2022/08/23 00:26:05;;;;;;;3.90;3.70;;;20.40;71.40;;;;;;10485758;28;20221;-79
2022/08/23 00:31:07;;;;;;;5.27;4.10;;;20.40;70.70;;;;;;10501135;28;20219;-79
2022/08/23 00:36:09;;;;;;;3.80;3.50;;;20.20;71.60;;;;;;10505113;28;20192;-79
2022/08/23 00:41:13;;;;;;;4.13;3.83;;;20.20;71.90;;;;;;10521547;28;20220;-79
2022/08/23 00:51:47;;;;;;;4.00;3.70;;;20.20;72.40;;;;;;10508787;28;20207;-79
2022/08/23 00:56:51;;;;;;;3.57;3.37;;;20.20;71.20;;;;;;10516573;28;20200;-79
2022/08/23 01:01:53;;;;;;;3.87;3.67;;;20.20;71.20;;;;;;10481862;28;20583;-79
2022/08/23 01:06:59;;;;;;;4.13;3.83;;;20.20;71.50;;;;;;10503121;28;20224;-79
2022/08/23 01:12:08;;;;;;;4.00;3.80;;;20.10;71.40;;;;;;10503642;28;20220;-79
2022/08/23 01:17:14;;;;;;;4.87;4.40;;;20.00;71.30;;;;;;10523744;28;20196;-79
2022/08/23 01:22:21;;;;;;;8.60;4.20;;;20.00;72.00;;;;;;10517982;28;20216;-79
2022/08/23 01:27:25;;;;;;;4.83;4.43;;;19.90;72.80;;;;;;10496054;28;20207;-79
2022/08/23 01:32:28;;;;;;;4.50;4.13;;;19.90;72.80;;;;;;10499462;28;20255;-79
2022/08/23 01:37:31;;;;;;;4.07;3.87;;;19.90;73.20;;;;;;10502697;28;20249;-79
2022/08/23 01:42:34;;;;;;;5.13;3.80;;;19.90;73.20;;;;;;10482479;28;20228;-79
2022/08/23 01:47:37;;;;;;;4.33;3.93;;;19.90;72.40;;;;;;10502829;28;20206;-79
2022/08/23 01:52:41;;;;;;;4.20;3.80;;;19.90;72.30;;;;;;10499810;28;20582;-79
2022/08/23 01:57:46;;;;;;;4.13;3.77;;;19.80;72.60;;;;;;10507683;28;20616;-79
2022/08/23 02:02:49;;;;;;;3.97;3.73;;;19.80;71.90;;;;;;10518098;28;20212;-79
2022/08/23 02:07:51;;;;;;;4.30;4.00;;;19.70;72.40;;;;;;10500717;28;20199;-79
2022/08/23 02:12:55;;;;;;;4.20;3.90;;;19.60;73.00;;;;;;10500629;28;20193;-79
2022/08/23 02:18:00;;;;;;;4.20;4.00;;;19.60;73.20;;;;;;10500075;28;20284;-79
2022/08/23 02:23:02;;;;;;;4.20;3.90;;;19.60;73.00;;;;;;10499303;28;20219;-79
2022/08/23 02:28:05;;;;;;;4.60;4.30;;;19.70;72.00;;;;;;10482914;28;20210;-79
2022/08/23 02:33:07;;;;;;;4.40;4.07;;;19.70;72.20;;;;;;10500645;28;20196;-79
2022/08/23 02:38:12;;;;;;;4.37;4.07;;;19.60;72.10;;;;;;10499219;28;20238;-79
2022/08/23 02:43:16;;;;;;;4.57;4.17;;;19.60;72.30;;;;;;10502153;28;20220;-79
2022/08/23 02:48:18;;;;;;;4.23;4.03;;;19.50;72.70;;;;;;10517350;28;20584;-79
2022/08/23 02:53:32;;;;;;;5.40;4.90;;;19.40;72.50;;;;;;10498750;28;20188;-79
2022/08/23 02:58:38;;;;;;;4.83;4.53;;;19.30;73.10;;;;;;10477382;28;20615;-79
2022/08/23 03:03:40;;;;;;;4.97;4.57;;;19.30;72.80;;;;;;10498677;28;20587;-79
2022/08/23 03:08:43;;;;;;;4.87;4.53;;;19.20;73.40;;;;;;10498046;28;20688;-79
2022/08/23 03:13:48;;;;;;;4.50;4.20;;;19.20;74.00;;;;;;10483086;28;20201;-79
2022/08/23 03:18:50;;;;;;;4.83;4.50;;;19.30;73.80;;;;;;10500370;28;20215;-79
2022/08/23 03:23:53;;;;;;;5.03;4.63;;;19.30;74.00;;;;;;10505875;28;20211;-79
2022/08/23 03:28:57;;;;;;;4.80;4.50;;;19.30;73.90;;;;;;10481471;28;20243;-79
2022/08/23 03:34:05;;;;;;;4.87;4.57;;;19.30;73.40;;;;;;10503466;28;20200;-79
2022/08/23 03:39:07;;;;;;;6.67;5.70;;;19.30;73.90;;;;;;10507860;28;20627;-79
2022/08/23 03:44:10;;;;;;;5.40;5.10;;;19.20;74.50;;;;;;10512022;28;20659;-79
2022/08/23 03:49:16;;;;;;;5.57;5.07;;;19.20;74.40;;;;;;10508356;28;20216;-79
2022/08/23 03:54:25;;;;;;;5.43;4.80;;;19.20;74.40;;;;;;10502242;28;20201;-79
2022/08/23 03:59:33;;;;;;;5.13;4.63;;;19.20;73.80;;;;;;10482814;28;20245;-79
2022/08/23 04:04:37;;;;;;;4.80;4.60;;;19.20;74.40;;;;;;10501059;28;20224;-79
2022/08/23 04:10:04;;;;;;;4.57;4.17;;;19.20;73.50;;;;;;10503380;28;20215;-79
2022/08/23 04:15:12;;;;;;;4.80;4.60;;;19.20;74.00;;;;;;10501720;28;20199;-79
2022/08/23 04:20:15;;;;;;;5.77;5.27;;;19.20;73.90;;;;;;10490288;28;20346;-79
2022/08/23 04:25:27;;;;;;;4.50;4.23;;;19.10;74.40;;;;;;10468047;28;20217;-79
2022/08/23 04:30:32;;;;;;;8.73;5.33;;;19.10;74.50;;;;;;10487162;28;20353;-79
2022/08/23 04:35:34;;;;;;;4.97;4.67;;;19.00;74.40;;;;;;10490409;28;20192;-79
2022/08/23 04:45:57;;;;;;;5.30;5.00;;;19.00;74.00;;;;;;10519976;28;20622;-79
2022/08/23 04:51:07;;;;;;;5.90;5.50;;;19.00;74.00;;;;;;10495878;28;20216;-79
2022/08/23 04:56:12;;;;;;;4.27;3.97;;;19.00;74.90;;;;;;10503448;28;20625;-81
2022/08/23 05:01:16;;;;;;;6.03;5.70;;;19.00;73.90;;;;;;10489912;28;20769;-81
2022/08/23 05:06:20;;;;;;;6.67;6.20;;;19.00;74.20;;;;;;10499738;28;20240;-81
2022/08/23 05:11:22;;;;;;;5.83;5.17;;;19.00;73.60;;;;;;10508595;28;20243;-81
2022/08/23 05:16:26;;;;;;;5.90;5.20;;;19.00;74.90;;;;;;10513885;28;20222;-81
2022/08/23 05:21:36;;;;;;;5.20;4.90;;;19.00;73.70;;;;;;10505572;28;20224;-80
2022/08/23 05:26:38;;;;;;;5.30;4.90;;;19.00;74.80;;;;;;10484486;28;20248;-81
2022/08/23 05:31:44;;;;;;;5.47;5.17;;;19.00;75.30;;;;;;10460242;28;20668;-82
2022/08/23 05:36:47;;;;;;;5.93;5.63;;;19.10;74.90;;;;;;10476751;28;20200;-81
2022/08/23 05:41:50;;;;;;;5.60;5.27;;;19.10;75.30;;;;;;10513254;28;20219;-81
2022/08/23 05:46:54;;;;;;;5.90;5.37;;;19.20;75.70;;;;;;10500469;28;20227;-80
2022/08/23 05:52:10;;;;;;;8.90;5.33;;;19.30;74.80;;;;;;10504491;28;20260;-80
2022/08/23 05:57:13;;;;;;;5.10;4.80;;;19.30;75.10;;;;;;10500738;28;20199;-81
2022/08/23 06:02:16;;;;;;;6.60;6.00;;;19.40;75.50;;;;;;10503943;28;20269;-80
2022/08/23 06:07:18;;;;;;;6.40;5.80;;;19.40;75.40;;;;;;10516251;28;20222;-81
2022/08/23 06:12:20;;;;;;;6.47;5.97;;;19.40;76.00;;;;;;10501641;28;20222;-82
2022/08/23 06:17:25;;;;;;;7.03;6.53;;;19.60;75.80;;;;;;10510172;28;20279;-81
2022/08/23 06:22:29;;;;;;;7.00;6.50;;;19.60;76.00;;;;;;10502549;28;20327;-82
2022/08/23 06:27:31;;;;;;;6.43;5.93;;;19.60;76.10;;;;;;10502587;28;20246;-80
2022/08/23 06:32:34;;;;;;;5.70;4.90;;;19.70;76.10;;;;;;10505449;28;20738;-82
2022/08/23 06:37:57;;;;;;;9.57;7.20;;;19.80;75.80;;;;;;10490754;28;20687;-81
2022/08/23 06:43:19;;;;;;;7.10;6.57;;;19.90;76.40;;;;;;10516322;28;20196;-80
2022/08/23 06:48:31;;;;;;;7.90;7.20;;;19.90;76.50;;;;;;10514839;28;20219;-82
2022/08/23 06:53:33;;;;;;;6.97;5.73;;;20.00;76.30;;;;;;10499005;28;20283;-82
2022/08/23 06:59:04;;;;;;;7.60;6.93;;;20.10;76.90;;;;;;10453043;28;20308;-82
2022/08/23 07:04:30;;;;;;;7.10;6.50;;;20.20;76.00;;;;;;10522117;28;20208;-81
2022/08/23 07:09:44;;;;;;;7.10;6.70;;;20.30;76.50;;;;;;10490878;28;20216;-81
2022/08/23 07:14:46;;;;;;;6.40;5.90;;;20.40;76.40;;;;;;10530634;28;20286;-80
2022/08/23 07:19:50;;;;;;;7.60;6.47;;;20.60;76.40;;;;;;10481525;28;20217;-81
2022/08/23 07:24:52;;;;;;;6.80;6.20;;;20.70;77.40;;;;;;10510020;28;20228;-80
2022/08/23 07:29:58;;;;;;;5.90;5.30;;;20.80;76.40;;;;;;10525500;28;20239;-82
2022/08/23 07:35:01;;;;;;;7.50;6.80;;;21.00;76.70;;;;;;10499711;28;20279;-82
2022/08/23 07:40:08;;;;;;;7.50;7.10;;;21.10;76.20;;;;;;10529407;28;20215;-82
2022/08/23 07:45:11;;;;;;;8.00;7.40;;;21.30;75.30;;;;;;10497938;28;20291;-81
2022/08/23 07:50:15;;;;;;;7.70;5.10;;;21.60;74.60;;;;;;10529339;28;20208;-81
2022/08/23 07:55:17;;;;;;;7.57;6.97;;;21.80;75.10;;;;;;10490749;28;20243;-80
2022/08/23 08:00:37;;;;;;;6.50;6.10;;;22.00;74.10;;;;;;10530269;28;20223;-82
2022/08/23 08:06:07;;;;;;;7.90;7.30;;;22.20;73.30;;;;;;10511804;28;20769;-82
2022/08/23 08:11:11;;;;;;;7.87;7.27;;;22.40;73.70;;;;;;10533993;28;20223;-81
2022/08/23 08:16:21;;;;;;;6.57;6.17;;;22.60;73.50;;;;;;10492255;28;20196;-82
2022/08/23 08:21:26;;;;;;;8.23;7.40;;;22.80;73.00;;;;;;10536592;28;20215;-81
2022/08/23 08:27:04;;;;;;;7.27;6.60;;;22.90;71.40;;;;;;10429027;28;20306;-82
2022/08/23 08:32:08;;;;;;;8.63;6.77;;;23.10;72.00;;;;;;10532686;28;20212;-82
2022/08/23 08:37:12;;;;;;;9.10;5.20;;;23.30;71.00;;;;;;10494907;28;20192;-81
2022/08/23 08:42:40;;;;;;;8.10;7.40;;;23.50;70.30;;;;;;10531332;28;20212;-81
2022/08/23 08:47:49;;;;;;;5.77;5.17;;;23.60;70.10;;;;;;10492153;28;20212;-79
2022/08/23 08:53:00;;;;;;;6.70;6.10;;;23.80;70.70;;;;;;10520986;28;20630;-82
2022/08/23 08:58:35;;;;;;;6.00;5.50;;;23.90;69.50;;;;;;10485466;28;20251;-81
2022/08/23 09:03:39;;;;;;;6.97;6.40;;;24.00;69.30;;;;;;10502008;28;20264;-81
2022/08/23 09:08:56;;;;;;;7.30;6.77;;;24.10;69.30;;;;;;10520094;28;20638;-81
2022/08/23 09:14:36;;;;;;;8.20;7.60;;;24.20;69.10;;;;;;10517935;28;20220;-81
2022/08/23 09:19:40;;;;;;;7.90;7.30;;;24.20;67.50;;;;;;10504821;28;20222;-82
2022/08/23 09:24:44;;;;;;;7.43;6.47;;;24.30;68.10;;;;;;10503222;28;20215;-79
2022/08/23 09:29:56;;;;;;;5.20;4.80;;;24.30;67.90;;;;;;10486408;28;20216;-82
2022/08/23 09:35:10;;;;;;;5.63;5.30;;;24.40;64.90;;;;;;10510061;28;20193;-80
2022/08/23 09:40:23;;;;;;;13.10;11.90;;;24.70;62.20;;;;;;10509840;28;20682;-81
2022/08/23 09:45:28;;;;;;;8.77;8.07;;;25.00;60.40;;;;;;10476545;28;20725;-82
2022/08/23 09:50:34;;;;;;;5.63;5.33;;;25.30;60.10;;;;;;10503499;28;20227;-81
2022/08/23 09:55:41;;;;;;;5.10;4.80;;;25.80;59.50;;;;;;10490781;28;20200;-81
2022/08/23 10:00:45;;;;;;;5.77;5.47;;;26.40;57.10;;;;;;10519142;28;20218;-80
2022/08/23 10:05:51;;;;;;;6.40;6.00;;;26.80;56.10;;;;;;10491944;28;20375;-82
2022/08/23 10:11:01;;;;;;;5.90;5.60;;;27.20;55.20;;;;;;10504121;28;20211;-82
2022/08/23 10:16:15;;;;;;;5.20;4.80;;;27.50;54.40;;;;;;10461428;28;20721;-80
2022/08/23 10:21:36;;;;;;;5.53;5.13;;;27.50;55.10;;;;;;10477705;28;20288;-82
2022/08/23 10:26:48;;;;;;;5.93;5.47;;;27.30;55.10;;;;;;10445898;28;20256;-82
2022/08/23 10:31:58;;;;;;;6.07;5.60;;;27.00;56.00;;;;;;10479074;28;20232;-80
2022/08/23 10:37:15;;;;;;;6.03;5.73;;;26.70;54.90;;;;;;10482547;28;20637;-81
2022/08/23 10:42:31;;;;;;;6.23;5.73;;;26.50;53.70;;;;;;10479966;28;20231;-82
2022/08/23 10:47:37;;;;;;;5.80;5.50;;;26.30;55.00;;;;;;10451109;28;20220;-82
2022/08/23 10:52:50;;;;;;;6.30;5.80;;;26.10;55.20;;;;;;10453013;28;20312;-81
2022/08/23 10:57:54;;;;;;;10.80;10.00;;;26.00;54.80;;;;;;10444806;28;20204;-82
2022/08/23 11:03:19;;;;;;;6.97;6.47;;;25.90;54.60;;;;;;10459688;28;20509;-82
2022/08/23 11:08:34;;;;;;;6.03;5.43;;;25.80;55.00;;;;;;10470392;28;20280;-82
2022/08/23 11:13:52;;;;;;;6.00;5.70;;;25.80;54.90;;;;;;10456566;28;20203;-82
2022/08/23 11:18:55;;;;;;;6.40;6.10;;;25.80;53.80;;;;;;10472034;28;20205;-82
2022/08/23 11:24:29;;;;;;;5.63;5.33;;;25.70;54.80;;;;;;10453429;28;20209;-81
2022/08/23 11:29:36;;;;;;;5.43;4.00;;;25.70;54.10;;;;;;10486578;28;20225;-81
2022/08/23 11:35:04;;;;;;;5.50;5.20;;;25.70;54.70;;;;;;10463658;28;20194;-80
2022/08/23 11:40:11;;;;;;;6.20;5.83;;;25.80;53.70;;;;;;10456689;28;20229;-80
2022/08/23 11:45:39;;;;;;;6.10;5.60;;;25.80;53.60;;;;;;10448079;28;20273;-80
2022/08/23 11:50:57;;;;;;;6.00;5.67;;;25.70;55.00;;;;;;10463631;28;20245;-80
2022/08/23 11:56:25;;;;;;;5.93;5.60;;;25.70;53.50;;;;;;10453516;28;20223;-80
2022/08/23 12:01:32;;;;;;;5.77;5.47;;;25.80;54.20;;;;;;10480404;28;20605;-80
2022/08/23 12:06:44;;;;;;;4.60;4.23;;;25.80;52.60;;;;;;10468565;28;20518;-80
2022/08/23 12:12:12;;;;;;;5.60;5.30;;;25.80;52.70;;;;;;10460280;28;20583;-80
2022/08/23 12:17:47;;;;;;;6.10;5.70;;;25.90;53.00;;;;;;10431174;28;20192;-79
2022/08/23 12:23:04;;;;;;;5.47;5.13;;;25.90;52.80;;;;;;10481815;28;20226;-79
2022/08/23 12:28:18;;;;;;;6.27;5.77;;;25.90;53.60;;;;;;10463773;28;20224;-79
2022/08/23 12:33:32;;;;;;;6.30;6.00;;;26.00;53.30;;;;;;10444395;28;20194;-79
2022/08/23 12:38:44;;;;;;;6.43;6.10;;;25.90;54.00;;;;;;10524188;28;20216;-79
2022/08/23 12:44:03;;;;;;;3.73;3.53;;;25.90;54.10;;;;;;10475879;28;20209;-79
2022/08/23 12:49:07;;;;;;;6.00;5.60;;;25.90;52.90;;;;;;10417683;28;20232;-79
2022/08/23 12:54:17;;;;;;;4.90;4.70;;;26.00;53.40;;;;;;10478536;28;20458;-79
2022/08/23 12:59:33;;;;;;;6.80;6.40;;;26.10;52.70;;;;;;10508809;28;20640;-79
2022/08/23 13:04:37;;;;;;;6.57;6.00;;;26.00;52.40;;;;;;10501353;28;20202;-79
2022/08/23 13:09:43;;;;;;;5.97;5.70;;;26.00;53.60;;;;;;10535574;28;20676;-81
2022/08/23 13:14:47;;;;;;;6.87;6.37;;;26.10;52.80;;;;;;10508886;28;20689;-78
2022/08/23 13:19:51;;;;;;;6.40;6.03;;;26.20;52.50;;;;;;10475521;28;20301;-79
2022/08/23 13:25:07;;;;;;;7.13;6.73;;;26.20;53.10;;;;;;10502598;28;20790;-79
2022/08/23 13:30:23;;;;;;;6.23;5.93;;;26.30;53.60;;;;;;10513503;28;20649;-77
2022/08/23 13:35:31;;;;;;;4.13;3.87;;;26.40;52.90;;;;;;10504617;28;20336;-78
2022/08/23 13:40:45;;;;;;;7.13;6.60;;;26.50;53.40;;;;;;10508750;28;20212;-77
2022/08/23 13:45:50;;;;;;;5.47;5.17;;;26.60;52.80;;;;;;10501831;28;20218;-78
2022/08/23 13:50:53;;;;;;;6.57;6.17;;;26.70;52.70;;;;;;10508958;28;20220;-79
2022/08/23 13:55:58;;;;;;;6.13;5.83;;;26.70;53.90;;;;;;10465247;28;20224;-77
2022/08/23 14:01:03;;;;;;;9.17;8.57;;;26.60;53.20;;;;;;10517991;28;20582;-77
2022/08/23 14:06:06;;;;;;;5.83;5.53;;;26.50;54.40;;;;;;10502321;28;20287;-78
2022/08/23 14:11:10;;;;;;;6.20;5.83;;;26.40;54.70;;;;;;10508240;28;20216;-78
2022/08/23 14:16:16;;;;;;;5.77;5.37;;;26.30;55.50;;;;;;10484274;28;20254;-78
2022/08/23 14:21:18;;;;;;;7.40;5.60;;;26.30;54.50;;;;;;10525362;28;20211;-77
2022/08/23 14:26:22;;;;;;;4.10;3.80;;;26.50;52.40;;;;;;10461713;28;20264;-78
2022/08/23 14:31:24;;;;;;;6.50;5.80;;;26.60;53.60;;;;;;10496864;28;20227;-78
2022/08/23 14:36:26;;;;;;;6.67;6.20;;;26.60;53.00;;;;;;10502490;28;20196;-78
2022/08/23 14:41:31;;;;;;;5.50;5.30;;;26.70;51.80;;;;;;10523369;28;20219;-78
2022/08/23 14:46:33;;;;;;;6.03;5.70;;;26.80;52.80;;;;;;10485025;28;20223;-78
2022/08/23 14:51:40;;;;;;;6.10;5.60;;;26.80;53.80;;;;;;10537137;28;20223;-80
2022/08/23 14:56:43;;;;;;;5.73;5.43;;;26.80;52.80;;;;;;10490415;28;20193;-80
2022/08/23 15:01:46;;;;;;;5.00;4.80;;;26.80;53.30;;;;;;10526466;28;20239;-80
2022/08/23 15:06:49;;;;;;;2.93;2.73;;;26.70;53.00;;;;;;10482566;28;20334;-79
2022/08/23 15:11:53;;;;;;;6.00;5.60;;;26.70;53.40;;;;;;10537448;28;20734;-80
2022/08/23 15:16:55;;;;;;;5.67;5.13;;;26.70;55.20;;;;;;10498641;28;20224;-80
2022/08/23 15:21:59;;;;;;;5.07;4.77;;;26.70;53.50;;;;;;10535640;28;20220;-80
2022/08/23 15:27:04;;;;;;;5.63;5.20;;;26.70;53.90;;;;;;10471144;28;20329;-79
2022/08/23 15:32:06;;;;;;;5.50;5.00;;;26.70;54.40;;;;;;10526719;28;20333;-80
2022/08/23 15:37:10;;;;;;;5.60;5.23;;;26.80;53.70;;;;;;10534508;28;20231;-80
2022/08/23 15:42:14;;;;;;;5.83;5.30;;;27.00;52.00;;;;;;10525754;28;20265;-80
2022/08/23 15:47:22;;;;;;;5.57;5.20;;;27.20;53.70;;;;;;10527710;28;20212;-80
2022/08/23 15:52:26;;;;;;;5.03;4.80;;;27.30;53.10;;;;;;10543794;28;20223;-80
2022/08/23 15:57:31;;;;;;;5.07;4.67;;;27.50;52.90;;;;;;10529517;28;20196;-80
2022/08/23 16:02:33;;;;;;;5.70;5.40;;;27.50;53.50;;;;;;10529331;28;20526;-79
2022/08/23 16:07:36;;;;;;;5.40;5.00;;;27.40;53.30;;;;;;10499461;28;20287;-81
2022/08/23 16:12:40;;;;;;;5.53;5.30;;;27.30;53.50;;;;;;10503420;28;20244;-80
2022/08/23 16:17:42;;;;;;;5.00;4.70;;;27.40;53.00;;;;;;10494118;28;20189;-79
2022/08/23 16:22:44;;;;;;;5.47;5.00;;;27.40;52.60;;;;;;10490138;28;20696;-79
2022/08/23 16:27:48;;;;;;;5.37;5.07;;;27.40;53.30;;;;;;10472153;28;20229;-79
2022/08/23 16:32:50;;;;;;;5.47;5.17;;;27.40;53.10;;;;;;10493509;28;20650;-81
2022/08/23 16:37:53;;;;;;;4.90;4.63;;;27.30;53.20;;;;;;10495999;28;20193;-82
2022/08/23 16:42:56;;;;;;;5.10;4.80;;;27.20;52.60;;;;;;10502959;28;20199;-80
2022/08/23 16:47:59;;;;;;;5.37;5.03;;;27.10;54.80;;;;;;10503267;28;20697;-81
2022/08/23 16:53:02;;;;;;;5.70;5.23;;;27.00;53.10;;;;;;10500007;28;20203;-81
2022/08/23 16:58:06;;;;;;;11.67;5.20;;;27.00;52.40;;;;;;10485408;28;20208;-82
2022/08/23 17:03:08;;;;;;;4.20;3.10;;;26.90;53.40;;;;;;10513821;28;20202;-81
2022/08/23 17:08:11;;;;;;;8.20;7.60;;;26.80;55.30;;;;;;10492571;28;20217;-81
2022/08/23 17:13:17;;;;;;;6.43;5.83;;;26.60;55.50;;;;;;10524633;28;20257;-80
2022/08/23 17:18:19;;;;;;;4.50;4.20;;;26.50;54.80;;;;;;10517337;28;20679;-79
2022/08/23 17:23:21;;;;;;;4.30;3.30;;;26.40;55.10;;;;;;10531869;28;20572;-80
2022/08/23 17:28:25;;;;;;;4.63;4.43;;;26.30;55.30;;;;;;10511088;28;20649;-79
2022/08/23 17:33:27;;;;;;;5.33;5.03;;;26.30;56.00;;;;;;10517902;28;20684;-79
2022/08/23 17:38:30;;;;;;;5.20;4.80;;;26.30;56.30;;;;;;10501967;28;20208;-80
2022/08/23 17:43:33;;;;;;;5.60;5.30;;;26.20;56.70;;;;;;10502569;28;20231;-80
2022/08/23 17:48:35;;;;;;;5.00;4.63;;;26.20;57.20;;;;;;10524966;28;20219;-81
2022/08/23 17:53:37;;;;;;;6.33;5.83;;;26.10;57.20;;;;;;10542498;28;20298;-80
2022/08/23 17:58:41;;;;;;;5.90;5.53;;;26.00;57.40;;;;;;10484711;28;20222;-80
2022/08/23 18:03:43;;;;;;;5.73;5.33;;;25.90;57.80;;;;;;10492279;28;20617;-80
2022/08/23 18:08:46;;;;;;;6.27;5.87;;;25.80;57.90;;;;;;10481266;28;20220;-80
2022/08/23 18:13:50;;;;;;;6.57;4.67;;;25.60;58.60;;;;;;10516770;28;20676;-80
2022/08/23 18:18:52;;;;;;;9.43;4.90;;;25.60;58.70;;;;;;10497272;28;20294;-80
2022/08/23 18:23:54;;;;;;;4.80;4.60;;;25.50;59.30;;;;;;10492098;28;20283;-79
2022/08/23 18:28:58;;;;;;;4.97;4.60;;;25.30;59.50;;;;;;10496247;28;20261;-78
2022/08/23 18:34:01;;;;;;;6.13;5.63;;;25.20;59.30;;;;;;10518613;28;20281;-78
2022/08/23 18:39:04;;;;;;;6.07;5.43;;;25.10;62.70;;;;;;10514065;28;20688;-79
2022/08/23 18:44:08;;;;;;;5.70;5.30;;;25.00;62.90;;;;;;10494761;28;20199;-79
2022/08/23 18:49:11;;;;;;;5.43;5.13;;;24.90;61.10;;;;;;10515464;28;20223;-79
2022/08/23 18:54:14;;;;;;;4.90;4.50;;;24.70;60.00;;;;;;10501338;28;20201;-78
2022/08/23 18:59:18;;;;;;;5.23;4.83;;;24.70;61.50;;;;;;10488640;28;20630;-79
2022/08/23 19:04:20;;;;;;;5.77;5.37;;;24.60;61.60;;;;;;10488241;28;20250;-79
2022/08/23 19:09:22;;;;;;;5.20;4.70;;;24.50;62.00;;;;;;10524440;28;20221;-78
2022/08/23 19:14:26;;;;;;;5.00;4.70;;;24.40;62.70;;;;;;10531180;28;20196;-78
2022/08/23 19:19:28;;;;;;;4.33;4.03;;;24.40;63.00;;;;;;10526894;28;20227;-79
2022/08/23 19:24:30;;;;;;;5.70;5.10;;;24.30;61.00;;;;;;10517968;28;20215;-78
2022/08/23 19:29:34;;;;;;;6.70;6.30;;;24.20;62.00;;;;;;10474900;28;20208;-79
2022/08/23 19:34:37;;;;;;;5.87;5.30;;;24.20;62.10;;;;;;10525324;28;20814;-79
2022/08/23 19:39:39;;;;;;;5.30;5.00;;;24.10;62.70;;;;;;10516631;28;20212;-79
2022/08/23 19:44:43;;;;;;;4.90;4.50;;;24.00;62.90;;;;;;10528084;28;20197;-78
2022/08/23 19:49:45;;;;;;;4.40;4.20;;;24.00;61.60;;;;;;10530486;28;20231;-79
2022/08/23 19:54:48;;;;;;;4.50;4.30;;;23.90;61.80;;;;;;10505928;28;20557;-79
2022/08/23 19:59:56;;;;;;;4.57;4.23;;;23.80;61.00;;;;;;10476714;28;20269;-79
2022/08/23 20:04:59;;;;;;;4.30;4.10;;;23.80;61.20;;;;;;10534314;28;20200;-79
2022/08/23 20:10:01;;;;;;;5.00;4.70;;;23.80;61.00;;;;;;10519944;28;20228;-79
2022/08/23 20:15:05;;;;;;;4.47;4.27;;;23.70;60.80;;;;;;10514939;28;20486;-79
2022/08/23 20:20:10;;;;;;;4.63;4.43;;;23.70;61.20;;;;;;10480869;28;20258;-79
2022/08/23 20:25:12;;;;;;;5.67;5.27;;;23.60;61.70;;;;;;10464559;28;20208;-80
2022/08/23 20:30:16;;;;;;;4.53;4.23;;;23.50;62.30;;;;;;10457254;28;20918;-80
2022/08/23 20:35:18;;;;;;;5.67;5.27;;;23.50;61.70;;;;;;10504805;28;20201;-80
2022/08/23 20:40:21;;;;;;;5.80;5.30;;;23.40;62.90;;;;;;10498601;28;20227;-79
2022/08/23 20:45:25;;;;;;;5.70;4.97;;;23.30;63.00;;;;;;10476954;28;20196;-80
2022/08/23 20:50:27;;;;;;;5.07;4.77;;;23.30;65.40;;;;;;10499020;28;20696;-80
2022/08/23 20:55:29;;;;;;;5.80;5.43;;;23.30;66.60;;;;;;10473143;28;20205;-79
2022/08/23 21:00:33;;;;;;;6.53;6.03;;;23.20;66.00;;;;;;10480265;28;20220;-80
2022/08/23 21:05:35;;;;;;;5.50;5.00;;;23.20;65.80;;;;;;10504271;28;20199;-79
2022/08/23 21:10:38;;;;;;;4.80;4.50;;;23.20;64.00;;;;;;10480218;28;20218;-79
2022/08/23 21:15:42;;;;;;;5.30;4.90;;;23.20;63.40;;;;;;10463692;28;20201;-79
2022/08/23 21:20:44;;;;;;;4.63;4.33;;;23.20;63.70;;;;;;10478252;28;20619;-79
2022/08/23 21:25:51;;;;;;;5.37;4.97;;;23.20;64.00;;;;;;10463593;28;20201;-79
2022/08/23 21:31:02;;;;;;;4.83;4.47;;;23.20;64.60;;;;;;10459896;28;20264;-79
2022/08/23 21:36:05;;;;;;;4.43;4.20;;;23.10;65.70;;;;;;10461287;28;20578;-80
2022/08/23 21:41:10;;;;;;;4.83;4.53;;;23.00;65.40;;;;;;10523297;28;20243;-79
2022/08/23 21:46:13;;;;;;;5.10;4.83;;;23.00;65.30;;;;;;10515498;28;20230;-79
2022/08/23 21:51:15;;;;;;;4.60;4.30;;;23.00;65.70;;;;;;10457367;28;20249;-79
2022/08/23 21:56:19;;;;;;;5.17;4.83;;;22.90;66.80;;;;;;10459157;28;20192;-79
2022/08/23 22:01:22;;;;;;;4.57;4.37;;;22.90;66.70;;;;;;10452975;28;20271;-79
2022/08/23 22:06:26;;;;;;;4.90;4.60;;;22.90;65.80;;;;;;10475571;28;20196;-79
2022/08/23 22:11:29;;;;;;;5.47;5.00;;;22.90;66.20;;;;;;10466252;28;20224;-79
2022/08/23 22:16:32;;;;;;;4.40;4.20;;;22.80;66.50;;;;;;10474144;28;20223;-79
2022/08/23 22:21:34;;;;;;;4.90;4.50;;;22.80;67.00;;;;;;10461115;28;20248;-79
2022/08/23 22:26:37;;;;;;;5.03;4.73;;;22.80;67.50;;;;;;10479095;28;20196;-79
2022/08/23 22:31:41;;;;;;;5.17;4.77;;;22.80;66.40;;;;;;10456293;28;20236;-79
2022/08/23 22:36:43;;;;;;;5.03;4.70;;;22.70;66.70;;;;;;10452024;28;21008;-80
2022/08/23 22:41:45;;;;;;;4.77;4.47;;;22.60;66.80;;;;;;10470296;28;20239;-78
2022/08/23 22:46:49;;;;;;;4.60;4.30;;;22.60;67.10;;;;;;10464932;28;20216;-80
2022/08/23 22:51:51;;;;;;;4.90;4.60;;;22.40;67.60;;;;;;10468769;28;20223;-79
2022/08/23 22:56:54;;;;;;;5.33;4.83;;;22.40;68.60;;;;;;10471035;28;20193;-79
2022/08/23 23:01:57;;;;;;;4.83;4.43;;;22.30;68.90;;;;;;10466836;28;20223;-79
2022/08/23 23:06:59;;;;;;;4.40;4.20;;;22.20;68.60;;;;;;10469151;28;20747;-79
2022/08/23 23:12:01;;;;;;;6.60;5.10;;;22.20;68.90;;;;;;10528545;28;20881;-79
2022/08/23 23:17:05;;;;;;;5.03;4.60;;;22.10;69.30;;;;;;10500380;28;20192;-79
2022/08/23 23:22:08;;;;;;;5.03;4.70;;;22.00;69.80;;;;;;10511936;28;20209;-79
2022/08/23 23:27:10;;;;;;;5.20;4.90;;;22.00;69.80;;;;;;10443125;28;20242;-79
2022/08/23 23:32:14;;;;;;;4.57;4.37;;;22.00;70.10;;;;;;10537614;28;20232;-79
2022/08/23 23:37:16;;;;;;;4.97;4.67;;;21.90;70.20;;;;;;10501795;28;20265;-80
2022/08/23 23:42:18;;;;;;;5.00;4.70;;;21.90;70.40;;;;;;10537859;28;20247;-79
2022/08/23 23:47:22;;;;;;;4.80;4.50;;;21.80;70.60;;;;;;10503402;28;20285;-80
2022/08/23 23:52:24;;;;;;;4.87;4.47;;;21.80;70.90;;;;;;10538581;28;20247;-80
2022/08/23 23:57:26;;;;;;;5.23;4.80;;;21.70;70.90;;;;;;10485728;28;20254;-79
